METAR Data
IDs: Format: Raw Decoded Include TAF

Data at: 2224 UTC 30 Jun 2022

METAR for:KUNV (State College/Univ P, PA, US)
Text:KUNV 302153Z 24008KT 10SM CLR 29/13 A3015
Temperature: 29.0°C ( 84°F)
Dewpoint: 13.0°C ( 55°F) [RH = 37%]
Pressure (altimeter):30.15 inches Hg (1021.1 mb)
Winds:from the WSW (240 degrees) at 9 MPH (8 knots; 4.1 m/s)
Visibility:10 or more sm (16+ km)
Ceiling:at least 12,000 feet AGL
Clouds:sky clear below 12,000 feet AGL

TAF for:KUNV (State College/Univ P, PA, US) issued at 2110 UTC 30 Jun 2022
Text:KUNV 302110Z 3021/0118 24007KT P6SM FEW070
Forecast period:2100 UTC 30 June 2022 to 1700 UTC 01 July 2022
Forecast type:FROM: standard forecast or significant change
Winds:from the WSW (240 degrees) at 8 MPH (7 knots; 3.6 m/s)
Visibility:6 or more sm (10+ km)
Ceiling:at least 12,000 feet AGL
Clouds: few clouds at 7000 feet AGL
Text:FM011700 24008G15KT P6SM BKN060
Forecast period:1700 to 1800 UTC 01 July 2022
Forecast type:FROM: standard forecast or significant change
Winds:from the WSW (240 degrees) at 9 MPH (8 knots; 4.1 m/s) gusting to 17 MPH (15 knots; 7.7 m/s)
Visibility:6 or more sm (10+ km)
Ceiling:6000 feet AGL
Clouds: broken clouds at 6000 feet AGL